createdAt,value
2022-10-01T00:01:17.722Z,65.45
2022-10-01T00:03:45.168Z,65.45
2022-10-01T00:06:17.105Z,65.55
2022-10-01T00:08:45.431Z,65.50
2022-10-01T00:11:20.309Z,65.75
2022-10-01T00:13:48.133Z,65.65
2022-10-01T00:16:18.602Z,65.69
2022-10-01T00:18:46.821Z,65.64
2022-10-01T00:21:23.953Z,65.86
2022-10-01T00:24:02.106Z,65.62
2022-10-01T00:26:31.891Z,65.58
2022-10-01T00:29:01.262Z,65.57
2022-10-01T00:31:28.267Z,65.52
2022-10-01T00:36:23.789Z,65.50
2022-10-01T00:38:50.432Z,65.32
2022-10-01T00:41:18.354Z,65.03
2022-10-01T00:43:55.495Z,64.97
2022-10-01T00:46:25.240Z,65.02
2022-10-01T00:49:10.430Z,65.09
2022-10-01T00:51:42.337Z,65.38
2022-10-01T00:54:13.757Z,65.49
2022-10-01T00:56:41.786Z,65.47
2022-10-01T00:59:10.328Z,65.78
2022-10-01T01:01:38.153Z,65.86
2022-10-01T01:04:05.825Z,65.94
2022-10-01T01:06:32.389Z,65.94
2022-10-01T01:08:58.949Z,65.99
2022-10-01T01:11:52.499Z,66.20
2022-10-01T01:14:44.975Z,66.21
2022-10-01T01:17:23.603Z,66.22
2022-10-01T01:20:19.156Z,66.17
2022-10-01T01:23:16.591Z,66.22
2022-10-01T01:25:49.112Z,66.12
2022-10-01T01:28:26.983Z,66.22
2022-10-01T01:30:56.958Z,66.25
2022-10-01T01:33:27.655Z,65.99
2022-10-01T01:36:04.340Z,65.87
2022-10-01T01:38:36.555Z,65.91
2022-10-01T01:41:05.599Z,65.80
2022-10-01T01:43:37.514Z,66.24
2022-10-01T01:46:06.743Z,66.14
2022-10-01T01:48:35.595Z,66.18
2022-10-01T01:51:11.284Z,66.38
2022-10-01T01:53:38.419Z,66.04
2022-10-01T01:56:06.197Z,66.04
2022-10-01T01:58:35.086Z,65.69
2022-10-01T02:01:02.427Z,65.71
2022-10-01T02:03:30.599Z,65.47
2022-10-01T02:06:09.376Z,65.52
2022-10-01T02:08:51.242Z,65.12
2022-10-01T02:11:28.611Z,64.64
2022-10-01T02:14:03.805Z,65.05
2022-10-01T02:16:50.583Z,65.08
2022-10-01T02:19:31.552Z,64.75
2022-10-01T02:22:20.554Z,64.83
2022-10-01T02:24:50.965Z,64.78
2022-10-01T02:27:27.492Z,64.85
2022-10-01T02:29:57.556Z,64.68
2022-10-01T02:32:25.076Z,64.68
2022-10-01T02:34:53.993Z,64.91
2022-10-01T02:37:25.945Z,65.18
2022-10-01T02:39:56.394Z,64.94
2022-10-01T02:42:27.122Z,65.00
2022-10-01T02:44:57.002Z,65.24
2022-10-01T02:47:29.147Z,65.32
2022-10-01T02:49:55.890Z,65.06
2022-10-01T02:52:32.786Z,65.33
2022-10-01T02:55:08.712Z,65.28
2022-10-01T02:57:36.825Z,64.99
2022-10-01T03:00:14.220Z,65.42
2022-10-01T03:02:41.378Z,64.81
2022-10-01T03:05:08.515Z,64.75
2022-10-01T03:07:35.867Z,64.79
2022-10-01T03:10:03.843Z,65.09
2022-10-01T03:12:30.372Z,64.99
2022-10-01T03:14:56.905Z,65.04
2022-10-01T03:17:23.389Z,65.09
2022-10-01T03:19:49.954Z,65.15
2022-10-01T03:22:18.718Z,65.12
2022-10-01T03:24:45.177Z,65.08
2022-10-01T03:27:11.683Z,65.08
2022-10-01T03:29:38.145Z,65.12
2022-10-01T03:32:04.698Z,65.18
2022-10-01T03:34:31.222Z,65.09
2022-10-01T03:36:57.754Z,65.19
2022-10-01T03:39:24.250Z,65.20
2022-10-01T03:41:50.827Z,65.29
2022-10-01T03:44:17.372Z,65.32
2022-10-01T03:46:44.134Z,65.31
2022-10-01T03:49:10.641Z,65.18
2022-10-01T03:51:37.953Z,65.32
2022-10-01T03:54:06.157Z,65.37
2022-10-01T03:56:32.991Z,65.37
2022-10-01T03:58:59.566Z,65.19
2022-10-01T04:01:26.555Z,65.39
2022-10-01T04:03:53.453Z,65.32
2022-10-01T04:06:20.074Z,65.15
2022-10-01T04:08:46.595Z,65.29
2022-10-01T04:11:13.098Z,65.36
2022-10-01T04:13:39.698Z,65.29
2022-10-01T04:16:06.641Z,65.44
2022-10-01T04:18:33.969Z,65.35
2022-10-01T04:21:00.587Z,65.38
2022-10-01T04:23:27.333Z,65.39
2022-10-01T04:25:53.869Z,65.55
2022-10-01T04:28:20.474Z,65.49
2022-10-01T04:30:46.948Z,65.54
2022-10-01T04:33:16.417Z,65.46
2022-10-01T04:35:43.693Z,65.42
2022-10-01T04:38:15.055Z,65.42
2022-10-01T04:40:41.632Z,65.36
2022-10-01T04:43:09.128Z,65.34
2022-10-01T04:45:36.987Z,65.46
2022-10-01T04:48:03.909Z,65.43
2022-10-01T04:50:31.088Z,65.44
2022-10-01T04:52:57.744Z,65.63
2022-10-01T04:55:24.595Z,65.58
2022-10-01T04:57:51.300Z,65.79
2022-10-01T05:00:20.918Z,65.84
2022-10-01T05:02:49.140Z,65.89
2022-10-01T05:05:17.945Z,65.89
2022-10-01T05:07:44.913Z,66.03
2022-10-01T05:10:20.465Z,66.18
2022-10-01T05:12:47.661Z,66.06
2022-10-01T05:15:15.790Z,66.18
2022-10-01T05:17:42.636Z,66.30
2022-10-01T05:20:15.636Z,66.31
2022-10-01T05:22:42.447Z,66.47
2022-10-01T05:25:09.102Z,66.66
2022-10-01T05:27:35.583Z,66.83
2022-10-01T05:30:02.631Z,66.83
2022-10-01T05:32:29.220Z,66.99
2022-10-01T05:34:55.851Z,67.13
2022-10-01T05:37:23.018Z,67.22
2022-10-01T05:39:49.802Z,67.37
2022-10-01T05:42:16.331Z,67.38
2022-10-01T05:44:42.790Z,67.35
2022-10-01T05:47:09.239Z,67.44
2022-10-01T05:49:35.742Z,67.50
2022-10-01T05:52:02.308Z,67.51
2022-10-01T05:54:28.942Z,67.81
2022-10-01T05:56:56.498Z,67.72
2022-10-01T05:59:22.986Z,67.80
2022-10-01T06:01:49.685Z,67.83
2022-10-01T06:04:16.302Z,67.94
2022-10-01T06:06:42.843Z,67.96
2022-10-01T06:09:09.841Z,67.92
2022-10-01T06:11:37.431Z,67.92
2022-10-01T06:14:04.094Z,67.77
2022-10-01T06:16:30.700Z,67.95
2022-10-01T06:18:57.552Z,68.08
2022-10-01T06:21:27.883Z,67.96
2022-10-01T06:23:54.590Z,68.07
2022-10-01T06:26:21.806Z,68.15
2022-10-01T06:28:51.703Z,67.92
2022-10-01T06:31:19.520Z,68.24
2022-10-01T06:33:46.501Z,68.27
2022-10-01T06:36:12.926Z,68.36
2022-10-01T06:38:39.415Z,68.40
2022-10-01T06:41:06.132Z,68.53
2022-10-01T06:43:33.361Z,68.39
2022-10-01T06:46:04.154Z,67.88
2022-10-01T06:48:30.961Z,68.13
2022-10-01T06:50:58.172Z,67.79
2022-10-01T06:53:26.825Z,67.63
2022-10-01T06:55:53.543Z,67.45
2022-10-01T06:58:22.286Z,67.21
2022-10-01T07:00:49.836Z,67.00
2022-10-01T07:03:19.166Z,66.69
2022-10-01T07:05:45.878Z,66.70
2022-10-01T07:08:16.093Z,66.65
2022-10-01T07:10:43.024Z,66.50
2022-10-01T07:13:14.463Z,66.19
2022-10-01T07:15:40.948Z,66.00
2022-10-01T07:18:08.733Z,65.85
2022-10-01T07:20:35.836Z,65.74
2022-10-01T07:23:02.620Z,65.85
2022-10-01T07:25:29.132Z,65.52
2022-10-01T07:28:01.534Z,64.71
2022-10-01T07:30:28.635Z,65.69
2022-10-01T07:32:55.174Z,65.74
2022-10-01T07:35:22.222Z,65.67
2022-10-01T07:37:50.033Z,65.37
2022-10-01T07:40:18.018Z,65.33
2022-10-01T07:42:53.280Z,63.35
2022-10-01T07:45:20.278Z,65.32
2022-10-01T07:47:52.529Z,63.72
2022-10-01T07:50:19.247Z,65.17
2022-10-01T07:52:45.775Z,64.95
2022-10-01T07:55:12.266Z,64.83
2022-10-01T07:57:38.814Z,64.41
2022-10-01T08:00:06.255Z,64.25
2022-10-01T08:02:38.810Z,64.21
2022-10-01T08:05:05.861Z,63.96
2022-10-01T08:07:32.344Z,63.62
2022-10-01T08:09:58.889Z,63.77
2022-10-01T08:12:25.413Z,63.30
2022-10-01T08:14:51.863Z,63.49
2022-10-01T08:17:18.320Z,63.34
2022-10-01T08:19:44.885Z,63.14
2022-10-01T08:22:11.341Z,62.77
2022-10-01T08:24:37.851Z,63.13
2022-10-01T08:27:04.354Z,62.82
2022-10-01T08:29:30.855Z,62.47
2022-10-01T08:31:57.398Z,62.17
2022-10-01T08:34:23.999Z,61.52
2022-10-01T08:36:51.445Z,60.99
2022-10-01T08:39:18.599Z,61.06
2022-10-01T08:41:45.116Z,60.64
2022-10-01T08:44:19.189Z,57.84
2022-10-01T08:46:46.828Z,59.25
2022-10-01T08:49:24.904Z,54.35
2022-10-01T08:51:55.610Z,57.50
2022-10-01T08:54:34.968Z,57.00
2022-10-01T08:57:03.605Z,56.52
2022-10-01T08:59:44.065Z,54.85
2022-10-01T09:02:19.617Z,55.96
2022-10-01T09:04:48.495Z,56.69
2022-10-01T09:07:35.645Z,54.60
2022-10-01T09:10:04.773Z,54.85
2022-10-01T09:12:55.740Z,53.69
2022-10-01T09:15:40.024Z,55.37
2022-10-01T09:18:28.328Z,54.80
2022-10-01T09:20:57.833Z,55.63
2022-10-01T09:23:29.774Z,55.60
2022-10-01T09:25:57.605Z,56.43
2022-10-01T09:28:28.644Z,55.90
2022-10-01T09:31:13.666Z,56.23
2022-10-01T09:33:43.143Z,56.89
2022-10-01T09:36:22.033Z,54.98
2022-10-01T09:39:01.852Z,55.28
2022-10-01T09:41:28.426Z,57.20
2022-10-01T09:43:54.977Z,56.85
2022-10-01T09:46:21.931Z,56.46
2022-10-01T09:48:55.147Z,56.68
2022-10-01T09:51:27.483Z,56.35
2022-10-01T09:54:18.021Z,54.13
2022-10-01T09:56:49.146Z,55.43
2022-10-01T09:59:22.320Z,54.72
2022-10-01T10:01:53.486Z,54.98
2022-10-01T10:04:21.891Z,55.59
2022-10-01T10:06:48.729Z,55.51
2022-10-01T10:09:18.843Z,54.70
2022-10-01T10:11:45.696Z,55.60
2022-10-01T10:14:18.550Z,54.68
2022-10-01T10:16:46.728Z,56.45
2022-10-01T10:19:24.430Z,55.59
2022-10-01T10:21:53.986Z,56.79
2022-10-01T10:24:32.310Z,56.47
2022-10-01T10:27:03.338Z,57.69
2022-10-01T10:29:37.334Z,56.96
2022-10-01T10:32:14.874Z,57.12
2022-10-01T10:34:45.737Z,57.55
2022-10-01T10:37:18.804Z,57.56
2022-10-01T10:39:51.078Z,55.19
2022-10-01T10:42:18.611Z,55.38
2022-10-01T10:44:48.713Z,55.22
2022-10-01T10:47:17.818Z,54.50
2022-10-01T10:49:57.381Z,55.62
2022-10-01T10:52:30.179Z,54.81
2022-10-01T10:54:58.874Z,55.57
2022-10-01T10:57:31.086Z,56.63
2022-10-01T11:00:02.046Z,56.72
2022-10-01T11:02:31.372Z,57.48
2022-10-01T11:05:17.819Z,58.75
2022-10-01T11:07:46.560Z,58.64
2022-10-01T11:10:25.487Z,59.80
2022-10-01T11:13:19.746Z,60.56
2022-10-01T11:16:13.727Z,60.08
2022-10-01T11:19:03.334Z,60.93
2022-10-01T11:21:51.064Z,61.52
2022-10-01T11:24:51.612Z,61.39
2022-10-01T11:27:40.634Z,62.08
2022-10-01T11:30:14.991Z,62.27
2022-10-01T11:32:49.126Z,62.55
2022-10-01T11:35:21.530Z,62.04
2022-10-01T11:38:06.462Z,62.99
2022-10-01T11:40:41.676Z,63.14
2022-10-01T11:43:35.464Z,64.30
2022-10-01T11:46:23.233Z,63.22
2022-10-01T11:48:52.089Z,62.77
2022-10-01T11:51:30.707Z,63.37
2022-10-01T11:54:02.476Z,63.34
2022-10-01T11:56:34.925Z,63.82
2022-10-01T11:59:08.714Z,63.49
2022-10-01T12:01:51.792Z,63.29
2022-10-01T12:04:32.241Z,62.99
2022-10-01T12:07:17.127Z,62.82
2022-10-01T12:09:55.480Z,63.33
2022-10-01T12:12:35.018Z,62.83
2022-10-01T12:15:24.020Z,63.16
2022-10-01T12:18:00.604Z,64.17
2022-10-01T12:20:40.663Z,64.21
2022-10-01T12:23:11.578Z,64.28
2022-10-01T12:25:54.417Z,65.58
2022-10-01T12:28:53.578Z,65.47
2022-10-01T12:31:42.264Z,65.22
2022-10-01T12:34:15.989Z,66.11
2022-10-01T12:36:54.421Z,65.94
2022-10-01T12:39:27.088Z,66.04
2022-10-01T12:42:05.433Z,66.85
2022-10-01T12:44:42.750Z,66.84
2022-10-01T12:47:17.801Z,66.95
2022-10-01T12:49:54.181Z,67.08
2022-10-01T12:52:36.120Z,67.60
2022-10-01T12:55:22.522Z,67.95
2022-10-01T12:58:29.498Z,67.97
2022-10-01T13:01:17.713Z,67.72
2022-10-01T13:04:03.614Z,67.84
2022-10-01T13:07:14.694Z,68.53
2022-10-01T13:09:56.482Z,68.66
2022-10-01T13:12:53.151Z,68.80
2022-10-01T13:15:27.062Z,68.71
2022-10-01T13:18:10.068Z,68.88
2022-10-01T13:20:43.514Z,69.13
2022-10-01T13:23:15.887Z,68.99
2022-10-01T13:26:05.333Z,68.87
2022-10-01T13:28:46.706Z,68.77
2022-10-01T13:31:15.480Z,69.09
2022-10-01T13:33:53.017Z,69.15
2022-10-01T13:36:29.378Z,69.33
2022-10-01T13:38:55.947Z,69.38
2022-10-01T13:41:33.138Z,69.42
2022-10-01T13:44:08.741Z,69.10
2022-10-01T13:46:49.243Z,69.23
2022-10-01T13:49:24.817Z,69.00
2022-10-01T13:51:52.053Z,69.15
2022-10-01T13:54:37.664Z,68.46
2022-10-01T13:57:38.137Z,68.65
2022-10-01T14:00:13.216Z,69.15
2022-10-01T14:02:43.258Z,68.75
2022-10-01T14:05:18.575Z,69.01
2022-10-01T14:07:47.673Z,69.40
2022-10-01T14:10:15.963Z,69.36
2022-10-01T14:15:42.435Z,69.38
2022-10-01T14:18:15.265Z,69.54
2022-10-01T14:20:47.347Z,69.21
2022-10-01T14:23:19.619Z,69.42
2022-10-01T14:26:01.350Z,69.15
2022-10-01T14:28:35.809Z,69.28
2022-10-01T14:31:10.164Z,69.31
2022-10-01T14:34:01.730Z,69.32
2022-10-01T14:36:39.996Z,69.60
2022-10-01T14:39:19.109Z,69.47
2022-10-01T14:41:47.701Z,69.89
2022-10-01T14:44:21.710Z,69.94
2022-10-01T14:46:53.076Z,69.62
2022-10-01T14:49:30.837Z,69.27
2022-10-01T14:52:12.911Z,69.53
2022-10-01T14:54:50.528Z,69.20
2022-10-01T14:57:31.612Z,69.21
2022-10-01T15:00:00.299Z,69.91
2022-10-01T15:02:27.611Z,69.96
2022-10-01T15:04:56.210Z,69.63
2022-10-01T15:07:24.776Z,69.35
2022-10-01T15:09:51.461Z,69.41
2022-10-01T15:12:21.605Z,68.91
2022-10-01T15:14:53.514Z,68.92
2022-10-01T15:17:24.446Z,69.13
2022-10-01T15:19:53.754Z,69.20
2022-10-01T15:22:24.761Z,68.91
2022-10-01T15:24:52.788Z,69.07
2022-10-01T15:27:20.889Z,68.72
2022-10-01T15:29:55.342Z,68.75
2022-10-01T15:32:24.621Z,68.78
2022-10-01T15:34:54.294Z,68.68
2022-10-01T15:37:28.010Z,67.41
2022-10-01T15:39:54.951Z,68.49
2022-10-01T15:42:29.425Z,68.18
2022-10-01T15:45:08.120Z,67.49
2022-10-01T15:47:39.193Z,68.03
2022-10-01T15:50:08.611Z,67.08
2022-10-01T15:52:45.136Z,67.58
2022-10-01T15:55:36.423Z,67.85
2022-10-01T15:58:07.815Z,67.93
2022-10-01T16:01:13.141Z,67.49
2022-10-01T16:03:48.063Z,68.17
2022-10-01T16:06:21.174Z,67.72
2022-10-01T16:09:03.156Z,67.88
2022-10-01T16:11:30.273Z,68.32
2022-10-01T16:14:21.612Z,67.88
2022-10-01T16:16:48.923Z,68.47
2022-10-01T16:19:31.561Z,67.69
2022-10-01T16:22:32.355Z,68.06
2022-10-01T16:25:07.047Z,68.19
2022-10-01T16:27:47.942Z,67.82
2022-10-01T16:30:21.906Z,68.25
2022-10-01T16:32:49.306Z,68.75
2022-10-01T16:35:22.846Z,68.43
2022-10-01T16:37:51.428Z,68.75
2022-10-01T16:40:19.359Z,68.92
2022-10-01T16:42:46.105Z,69.04
2022-10-01T16:45:18.211Z,68.68
2022-10-01T16:47:45.604Z,68.95
2022-10-01T16:50:15.345Z,68.73
2022-10-01T16:52:42.684Z,68.96
2022-10-01T16:55:22.571Z,68.69
2022-10-01T16:57:50.012Z,69.10
2022-10-01T17:00:19.124Z,68.99
2022-10-01T17:02:45.743Z,69.29
2022-10-01T17:05:20.700Z,68.74
2022-10-01T17:07:47.215Z,69.15
2022-10-01T17:10:14.266Z,69.24
2022-10-01T17:12:42.246Z,69.38
2022-10-01T17:15:13.283Z,69.28
2022-10-01T17:17:39.818Z,69.47
2022-10-01T17:20:07.667Z,69.57
2022-10-01T17:22:34.304Z,69.62
2022-10-01T17:25:00.916Z,69.44
2022-10-01T17:27:27.405Z,69.63
2022-10-01T17:29:53.940Z,69.59
2022-10-01T17:32:20.417Z,69.42
2022-10-01T17:34:46.856Z,69.30
2022-10-01T17:37:13.609Z,69.34
2022-10-01T17:39:40.125Z,69.23
2022-10-01T17:42:06.638Z,69.22
2022-10-01T17:44:33.355Z,69.22
2022-10-01T17:46:59.804Z,69.41
2022-10-01T17:49:26.341Z,69.43
2022-10-01T17:51:52.877Z,69.36
2022-10-01T17:54:19.805Z,69.29
2022-10-01T17:56:46.464Z,69.40
2022-10-01T17:59:13.132Z,69.30
2022-10-01T18:01:39.652Z,69.34
2022-10-01T18:04:06.180Z,69.32
2022-10-01T18:06:33.280Z,69.17
2022-10-01T18:08:59.968Z,69.00
2022-10-01T18:11:28.156Z,69.11
2022-10-01T18:13:54.960Z,68.59
2022-10-01T18:16:22.179Z,69.18
2022-10-01T18:19:52.275Z,68.76
2022-10-01T18:21:44.617Z,69.03
2022-10-01T18:24:11.256Z,68.83
2022-10-01T18:26:38.282Z,68.99
2022-10-01T18:29:05.112Z,68.94
2022-10-01T18:31:37.319Z,68.57
2022-10-01T18:34:15.169Z,68.64
2022-10-01T18:37:04.465Z,68.05
2022-10-01T18:39:39.650Z,68.85
2022-10-01T18:42:21.025Z,68.59
2022-10-01T18:44:59.829Z,68.21
2022-10-01T18:47:32.080Z,68.72
2022-10-01T18:50:21.383Z,68.14
2022-10-01T18:53:12.955Z,68.23
2022-10-01T18:55:54.388Z,68.38
2022-10-01T18:58:51.850Z,68.43
2022-10-01T19:01:27.558Z,68.83
2022-10-01T19:04:28.466Z,68.53
2022-10-01T19:07:40.273Z,68.59
2022-10-01T19:10:18.443Z,69.16
2022-10-01T19:13:12.313Z,68.39
2022-10-01T19:16:15.275Z,68.65
2022-10-01T19:19:07.099Z,68.69
2022-10-01T19:21:59.433Z,68.51
2022-10-01T19:24:41.079Z,68.75
2022-10-01T19:27:19.937Z,68.79
2022-10-01T19:30:03.158Z,68.61
2022-10-01T19:33:04.098Z,68.34
2022-10-01T19:35:42.812Z,68.17
2022-10-01T19:38:15.799Z,68.83
2022-10-01T19:41:01.274Z,67.80
2022-10-01T19:43:39.773Z,68.33
2022-10-01T19:46:24.867Z,68.25
2022-10-01T19:49:09.132Z,67.88
2022-10-01T19:51:39.834Z,68.74
2022-10-01T19:54:14.447Z,68.09
2022-10-01T19:56:42.073Z,68.69
2022-10-01T19:59:16.250Z,68.37
2022-10-01T20:01:57.457Z,67.75
2022-10-01T20:04:33.682Z,68.26
2022-10-01T20:07:05.462Z,68.35
2022-10-01T20:09:47.223Z,67.32
2022-10-01T20:12:35.999Z,68.29
2022-10-01T20:15:34.760Z,67.98
2022-10-01T20:18:13.623Z,68.48
2022-10-01T20:21:01.619Z,67.59
2022-10-01T20:23:38.103Z,67.91
2022-10-01T20:26:33.940Z,68.08
2022-10-01T20:29:35.801Z,67.92
2022-10-01T20:32:35.990Z,68.36
2022-10-01T20:35:35.357Z,67.98
2022-10-01T20:38:13.428Z,68.21
2022-10-01T20:40:45.845Z,68.34
2022-10-01T20:43:17.766Z,68.51
2022-10-01T20:45:47.293Z,68.61
2022-10-01T20:48:20.157Z,68.34
2022-10-01T20:50:53.392Z,68.39
2022-10-01T20:53:28.796Z,68.40
2022-10-01T20:56:04.457Z,68.42
2022-10-01T20:58:50.184Z,68.71
2022-10-01T21:01:23.114Z,68.73
2022-10-01T21:04:01.319Z,68.64
2022-10-01T21:06:37.357Z,68.91
2022-10-01T21:09:32.566Z,69.25
2022-10-01T21:12:08.863Z,69.64
2022-10-01T21:14:44.692Z,69.95
2022-10-01T21:17:11.101Z,69.50
2022-10-01T21:19:52.337Z,69.89
2022-10-01T21:22:38.192Z,70.35
2022-10-01T21:25:13.643Z,70.27
2022-10-01T21:28:05.829Z,70.38
2022-10-01T21:30:47.337Z,70.65
2022-10-01T21:33:18.258Z,70.45
2022-10-01T21:35:52.444Z,70.82
2022-10-01T21:38:44.502Z,70.87
2022-10-01T21:41:33.994Z,70.76
2022-10-01T21:44:12.861Z,70.60
2022-10-01T21:46:56.278Z,70.77
2022-10-01T21:49:54.230Z,70.60
2022-10-01T21:52:38.696Z,70.89
2022-10-01T21:55:32.940Z,70.72
2022-10-01T21:58:05.168Z,70.72
2022-10-01T22:00:31.840Z,70.72
2022-10-01T22:03:21.173Z,70.62
2022-10-01T22:06:03.107Z,70.84
2022-10-01T22:08:56.923Z,70.82
2022-10-01T22:11:29.189Z,70.90
2022-10-01T22:14:01.530Z,70.82
2022-10-01T22:16:41.081Z,70.85
2022-10-01T22:19:14.579Z,70.71
2022-10-01T22:21:47.896Z,70.73
2022-10-01T22:24:36.654Z,70.71
2022-10-01T22:27:15.900Z,70.63
2022-10-01T22:29:51.852Z,70.66
2022-10-01T22:32:22.202Z,70.91
2022-10-01T22:34:59.179Z,70.53
2022-10-01T22:37:35.735Z,70.55
2022-10-01T22:40:13.566Z,70.36
2022-10-01T22:42:52.947Z,70.42
2022-10-01T22:45:23.878Z,70.69
2022-10-01T22:48:08.641Z,70.20
2022-10-01T22:51:03.849Z,70.17
2022-10-01T22:53:55.100Z,69.83
2022-10-01T22:56:34.548Z,69.75
2022-10-01T22:59:27.537Z,69.71
2022-10-01T23:02:17.189Z,69.92
2022-10-01T23:05:03.939Z,70.15
2022-10-01T23:07:39.589Z,69.77
2022-10-01T23:10:13.152Z,69.67
2022-10-01T23:12:58.386Z,69.90
2022-10-01T23:15:48.937Z,69.28
2022-10-01T23:18:25.313Z,69.44
2022-10-01T23:21:19.915Z,69.09
2022-10-01T23:24:12.421Z,69.47
2022-10-01T23:26:49.575Z,69.52
2022-10-01T23:29:37.869Z,69.54
2022-10-01T23:32:26.183Z,68.83
2022-10-01T23:35:28.355Z,69.01
2022-10-01T23:38:15.448Z,69.39
2022-10-01T23:40:45.213Z,69.55
2022-10-01T23:43:17.024Z,69.13
2022-10-01T23:45:51.120Z,69.16
2022-10-01T23:48:29.987Z,69.24
2022-10-01T23:51:15.024Z,69.08
2022-10-01T23:53:57.427Z,69.12
2022-10-01T23:57:07.052Z,69.17
2022-10-01T23:59:41.841Z,69.25
